Time;durP1;ratioP1;P1;durP2;ratioP2;P2;SDS_P1;SDS_P2;PMS_P1;PMS_P2;Temp;Humidity;BMP_temperature;BMP_pressure;BME280_temperature;BME280_humidity;BME280_pressure;Samples;Min_cycle;Max_cycle;Signal;HPM_P1;HPM_P2
2021/03/23 00:00:25;;;;;;;0.43;0.40;;;;;;;;;;10166187;28;20034;-62
2021/03/23 00:05:23;;;;;;;0.30;0.30;;;;;;;;;;10168948;28;20038;-60
2021/03/23 00:10:22;;;;;;;0.23;0.23;;;;;;;;;;10173959;28;20502;-62
2021/03/23 00:15:20;;;;;;;0.63;0.60;;;;;;;;;;10174136;28;20860;-60
2021/03/23 00:20:20;;;;;;;1.73;0.50;;;;;;;;;;10157836;28;20042;-58
2021/03/23 00:25:17;;;;;;;0.45;0.45;;;;;;;;;;10169983;28;20031;-61
2021/03/23 00:30:15;;;;;;;0.47;0.47;;;;;;;;;;10185158;28;20035;-61
2021/03/23 00:35:12;;;;;;;0.67;0.67;;;;;;;;;;10153004;28;20038;-61
2021/03/23 00:40:14;;;;;;;1.57;0.47;;;;;;;;;;10162003;28;20043;-58
2021/03/23 00:45:12;;;;;;;0.98;0.70;;;;;;;;;;10160825;28;20587;-61
2021/03/23 00:50:09;;;;;;;1.83;0.88;;;;;;;;;;10173041;28;20221;-59
2021/03/23 00:55:07;;;;;;;1.37;0.43;;;;;;;;;;10175136;28;20118;-60
2021/03/23 01:00:07;;;;;;;1.00;0.85;;;;;;;;;;10171891;28;20039;-59
2021/03/23 01:05:05;;;;;;;0.32;0.32;;;;;;;;;;10151896;28;20058;-60
2021/03/23 01:10:04;;;;;;;1.50;0.85;;;;;;;;;;10169836;28;20066;-60
2021/03/23 01:15:02;;;;;;;3.78;1.00;;;;;;;;;;10151150;28;20122;-61
2021/03/23 01:20:00;;;;;;;;;;;;;;;;;;10174317;28;20045;-60
2021/03/23 01:24:57;;;;;;;0.90;0.65;;;;;;;;;;10154487;28;19924;-61
2021/03/23 01:29:55;;;;;;;3.20;1.03;;;;;;;;;;10169972;28;20026;-58
2021/03/23 01:34:52;;;;;;;0.60;0.60;;;;;;;;;;10173655;28;20049;-60
2021/03/23 01:39:49;;;;;;;2.67;0.73;;;;;;;;;;10157389;28;20038;-57
2021/03/23 01:45:07;;;;;;;4.70;0.83;;;;;;;;;;10172790;28;20445;-57
2021/03/23 01:50:04;;;;;;;0.35;0.30;;;;;;;;;;10171580;28;20599;-60
2021/03/23 01:55:04;;;;;;;1.00;0.60;;;;;;;;;;10168220;28;20093;-60
2021/03/23 02:00:01;;;;;;;2.67;1.20;;;;;;;;;;10191495;28;20035;-60
2021/03/23 02:05:00;;;;;;;1.40;0.70;;;;;;;;;;10181685;28;20039;-61
2021/03/23 02:09:57;;;;;;;0.53;0.43;;;;;;;;;;10182161;28;20490;-58
2021/03/23 02:14:55;;;;;;;1.03;0.90;;;;;;;;;;10174731;28;20509;-61
2021/03/23 02:19:55;;;;;;;2.17;0.57;;;;;;;;;;10178999;28;20118;-62
2021/03/23 02:24:53;;;;;;;2.45;0.70;;;;;;;;;;10176907;28;20027;-61
2021/03/23 02:29:51;;;;;;;1.60;0.67;;;;;;;;;;10170596;28;20039;-59
2021/03/23 02:34:49;;;;;;;2.30;1.10;;;;;;;;;;10177319;28;20063;-61
2021/03/23 02:39:46;;;;;;;1.13;0.87;;;;;;;;;;10178520;28;20053;-62
2021/03/23 02:44:46;;;;;;;5.50;0.73;;;;;;;;;;10179077;28;20045;-61
2021/03/23 02:49:43;;;;;;;2.95;1.02;;;;;;;;;;10181863;28;20030;-61
2021/03/23 02:54:41;;;;;;;3.50;1.03;;;;;;;;;;10191466;28;20022;-58
2021/03/23 02:59:38;;;;;;;2.90;1.57;;;;;;;;;;10182659;28;20654;-58
2021/03/23 03:04:38;;;;;;;0.77;0.73;;;;;;;;;;10180562;28;20115;-64
2021/03/23 03:09:36;;;;;;;3.60;0.95;;;;;;;;;;10178554;28;20051;-61
2021/03/23 03:14:33;;;;;;;6.60;1.90;;;;;;;;;;10169721;28;21690;-61
2021/03/23 03:19:31;;;;;;;4.03;0.73;;;;;;;;;;10183807;28;20155;-61
2021/03/23 03:24:28;;;;;;;3.10;1.40;;;;;;;;;;10174767;28;20030;-61
2021/03/23 03:29:25;;;;;;;1.10;0.60;;;;;;;;;;10179001;28;20043;-61
2021/03/23 03:34:23;;;;;;;3.17;1.57;;;;;;;;;;10166663;28;20412;-63
2021/03/23 03:39:21;;;;;;;1.60;1.33;;;;;;;;;;10165630;28;20464;-61
2021/03/23 03:44:18;;;;;;;3.90;1.80;;;;;;;;;;10171958;28;20039;-60
2021/03/23 03:49:15;;;;;;;3.10;1.57;;;;;;;;;;10172601;28;20092;-61
2021/03/23 03:54:13;;;;;;;2.23;1.07;;;;;;;;;;10179289;28;20042;-60
2021/03/23 03:59:10;;;;;;;4.83;2.13;;;;;;;;;;10186455;28;20047;-59
2021/03/23 04:04:07;;;;;;;3.63;2.10;;;;;;;;;;10157223;28;20039;-60
2021/03/23 04:09:05;;;;;;;0.50;0.43;;;;;;;;;;10174292;28;20497;-62
2021/03/23 04:14:02;;;;;;;2.40;1.63;;;;;;;;;;10175450;28;20031;-61
2021/03/23 04:19:00;;;;;;;3.17;1.47;;;;;;;;;;10188736;28;20027;-62
2021/03/23 04:23:57;;;;;;;5.90;2.10;;;;;;;;;;10175991;28;20466;-61
2021/03/23 04:28:54;;;;;;;3.63;2.00;;;;;;;;;;10181523;28;20454;-61
2021/03/23 04:33:52;;;;;;;3.10;1.80;;;;;;;;;;10164813;28;20506;-60
2021/03/23 04:38:49;;;;;;;11.80;2.40;;;;;;;;;;10169759;28;20025;-59
2021/03/23 04:43:48;;;;;;;6.07;2.50;;;;;;;;;;10182889;28;20035;-61
2021/03/23 04:48:45;;;;;;;6.18;2.25;;;;;;;;;;10100007;28;20036;-61
2021/03/23 04:53:42;;;;;;;6.00;2.47;;;;;;;;;;10137394;28;20031;-59
2021/03/23 04:58:40;;;;;;;2.87;1.33;;;;;;;;;;10182380;28;20035;-61
2021/03/23 05:03:37;;;;;;;11.33;4.27;;;;;;;;;;10165752;28;20031;-60
2021/03/23 05:08:36;;;;;;;8.80;4.10;;;;;;;;;;10147287;28;20035;-60
2021/03/23 05:13:33;;;;;;;11.63;3.47;;;;;;;;;;10165118;28;20041;-62
2021/03/23 05:18:31;;;;;;;6.77;3.73;;;;;;;;;;10154608;28;20051;-62
2021/03/23 05:23:28;;;;;;;9.43;4.47;;;;;;;;;;10161452;28;20406;-64
2021/03/23 05:28:26;;;;;;;13.30;4.67;;;;;;;;;;10164949;28;20023;-62
2021/03/23 05:33:24;;;;;;;9.50;4.73;;;;;;;;;;10161418;28;20043;-59
2021/03/23 05:38:21;;;;;;;;;;;;;;;;;;10169814;28;20062;-61
2021/03/23 05:43:28;;;;;;;12.48;5.00;;;;;;;;;;10136218;28;19973;-61
2021/03/23 05:48:27;;;;;;;12.60;4.65;;;;;;;;;;10157469;28;20378;-63
2021/03/23 05:53:33;;;;;;;8.48;4.25;;;;;;;;;;10176665;28;20122;-63
2021/03/23 05:58:33;;;;;;;11.52;5.90;;;;;;;;;;10159433;28;20050;-63
2021/03/23 06:03:34;;;;;;;28.30;12.10;;;;;;;;;;10160447;28;20042;-62
2021/03/23 06:08:33;;;;;;;29.17;13.43;;;;;;;;;;10176839;23;21589;-64
2021/03/23 06:13:46;;;;;;;24.48;10.60;;;;;;;;;;10245723;28;20038;-64
2021/03/23 06:19:02;;;;;;;24.90;10.98;;;;;;;;;;10241765;28;20173;-64
2021/03/23 06:24:06;;;;;;;25.52;12.68;;;;;;;;;;10236738;28;20065;-67
2021/03/23 06:29:14;;;;;;;26.67;11.75;;;;;;;;;;10262058;28;20046;-65
2021/03/23 06:34:16;;;;;;;30.33;14.73;;;;;;;;;;10254501;28;20113;-64
2021/03/23 06:39:14;;;;;;;28.88;12.30;;;;;;;;;;10257860;28;20121;-65
2021/03/23 06:44:14;;;;;;;23.73;11.67;;;;;;;;;;10246056;28;20112;-66
2021/03/23 06:49:12;;;;;;;19.15;10.07;;;;;;;;;;10220878;28;20116;-66
2021/03/23 06:54:13;;;;;;;27.07;9.20;;;;;;;;;;10223420;28;20022;-64
2021/03/23 06:59:19;;;;;;;20.30;7.82;;;;;;;;;;10250018;28;20033;-62
2021/03/23 07:04:16;;;;;;;19.30;7.53;;;;;;;;;;10228536;28;20123;-63
2021/03/23 07:09:22;;;;;;;16.07;7.57;;;;;;;;;;10234564;28;20113;-61
2021/03/23 07:14:32;;;;;;;15.25;6.38;;;;;;;;;;10234171;28;20526;-63
2021/03/23 07:19:29;;;;;;;13.60;6.05;;;;;;;;;;10241458;28;20492;-63
2021/03/23 07:24:31;;;;;;;21.87;7.00;;;;;;;;;;10249853;28;20033;-62
2021/03/23 07:29:29;;;;;;;13.75;6.10;;;;;;;;;;10217364;28;20080;-62
2021/03/23 07:34:39;;;;;;;23.40;7.50;;;;;;;;;;10258201;28;20079;-63
2021/03/23 07:39:48;;;;;;;15.50;5.55;;;;;;;;;;10251421;28;20053;-62
2021/03/23 07:44:54;;;;;;;9.27;5.25;;;;;;;;;;10241528;28;20342;-61
2021/03/23 07:50:01;;;;;;;13.48;6.18;;;;;;;;;;10246482;28;20040;-62
2021/03/23 07:54:59;;;;;;;11.75;5.35;;;;;;;;;;10245453;28;20100;-61
2021/03/23 07:59:57;;;;;;;;;;;;;;;;;;10254747;28;20570;-65
2021/03/23 08:05:08;;;;;;;15.75;5.43;;;;;;;;;;10243240;28;20395;-62
2021/03/23 08:10:09;;;;;;;24.50;8.65;;;;;;;;;;10225342;28;20044;-62
2021/03/23 08:15:29;;;;;;;16.15;6.90;;;;;;;;;;10243062;28;20026;-63
2021/03/23 08:20:35;;;;;;;6.28;2.88;;;;;;;;;;10258890;28;20057;-62
2021/03/23 08:25:35;;;;;;;18.38;8.25;;;;;;;;;;10237708;28;20038;-64
2021/03/23 08:30:33;;;;;;;16.88;7.43;;;;;;;;;;10246173;28;20107;-63
2021/03/23 08:35:35;;;;;;;14.02;6.90;;;;;;;;;;10250927;28;20041;-64
2021/03/23 08:40:52;;;;;;;25.42;8.82;;;;;;;;;;10260021;28;20040;-62
2021/03/23 08:45:51;;;;;;;23.67;9.05;;;;;;;;;;10245905;28;20045;-63
2021/03/23 08:50:49;;;;;;;21.38;8.73;;;;;;;;;;10275414;28;20029;-64
2021/03/23 08:55:47;;;;;;;21.85;9.80;;;;;;;;;;10330570;28;20396;-64
2021/03/23 09:00:52;;;;;;;20.17;8.27;;;;;;;;;;10330025;28;20039;-63
2021/03/23 09:05:53;;;;;;;20.80;9.65;;;;;;;;;;10350479;28;20580;-65
2021/03/23 09:10:50;;;;;;;27.05;10.32;;;;;;;;;;10353000;28;20452;-64
2021/03/23 09:15:52;;;;;;;24.87;9.67;;;;;;;;;;10365992;28;20094;-62
2021/03/23 09:20:54;;;;;;;17.33;8.35;;;;;;;;;;10336801;28;20063;-64
2021/03/23 09:25:52;;;;;;;16.92;7.60;;;;;;;;;;10341055;28;20087;-63
2021/03/23 09:30:51;;;;;;;16.80;8.05;;;;;;;;;;10340691;28;20041;-64
2021/03/23 09:36:05;;;;;;;11.60;6.20;;;;;;;;;;10345971;28;20032;-63
2021/03/23 09:41:05;;;;;;;19.02;8.95;;;;;;;;;;10340316;28;20044;-63
2021/03/23 09:46:13;;;;;;;19.60;8.65;;;;;;;;;;10315510;28;20025;-62
2021/03/23 09:51:12;;;;;;;21.02;7.85;;;;;;;;;;10334383;28;20085;-63
2021/03/23 09:56:10;;;;;;;22.02;8.98;;;;;;;;;;10371666;28;20436;-65
2021/03/23 10:01:15;;;;;;;20.00;7.70;;;;;;;;;;10345118;28;20605;-63
2021/03/23 10:06:15;;;;;;;18.42;7.90;;;;;;;;;;10322428;28;20295;-65
2021/03/23 10:11:14;;;;;;;20.38;8.30;;;;;;;;;;10261318;28;20029;-65
2021/03/23 10:16:20;;;;;;;20.50;8.55;;;;;;;;;;10320150;28;20067;-63
2021/03/23 10:21:18;;;;;;;19.88;7.93;;;;;;;;;;10320337;28;20040;-63
2021/03/23 10:26:15;;;;;;;21.63;7.60;;;;;;;;;;10324506;28;20041;-62
2021/03/23 10:31:13;;;;;;;14.60;6.90;;;;;;;;;;10326621;28;20033;-63
2021/03/23 10:36:12;;;;;;;19.85;7.65;;;;;;;;;;10322525;28;20033;-60
2021/03/23 10:41:09;;;;;;;;;;;;;;;;;;10327631;28;20037;-65
2021/03/23 10:46:25;;;;;;;17.93;6.47;;;;;;;;;;10326117;28;19917;-63
2021/03/23 10:51:28;;;;;;;20.40;7.55;;;;;;;;;;10325090;28;20037;-64
2021/03/23 10:56:34;;;;;;;16.85;7.13;;;;;;;;;;10320221;28;21164;-61
2021/03/23 11:01:31;;;;;;;15.90;6.53;;;;;;;;;;10323863;28;20029;-63
2021/03/23 11:06:33;;;;;;;18.77;7.20;;;;;;;;;;10332731;28;21061;-64
2021/03/23 11:11:31;;;;;;;16.73;7.13;;;;;;;;;;10331630;28;20090;-63
2021/03/23 11:16:30;;;;;;;14.13;6.40;;;;;;;;;;10329172;28;20506;-63
2021/03/23 11:21:34;;;;;;;14.68;6.35;;;;;;;;;;10281870;28;20048;-66
2021/03/23 11:26:32;;;;;;;16.55;6.85;;;;;;;;;;10293270;28;20510;-64
2021/03/23 11:31:31;;;;;;;11.33;6.23;;;;;;;;;;10280727;28;20116;-62
2021/03/23 11:36:29;;;;;;;15.70;5.90;;;;;;;;;;10339208;28;20029;-61
2021/03/23 11:41:30;;;;;;;12.15;5.72;;;;;;;;;;10363362;28;20086;-63
2021/03/23 11:46:32;;;;;;;15.00;5.28;;;;;;;;;;10336638;28;20029;-63
2021/03/23 11:51:30;;;;;;;10.40;4.68;;;;;;;;;;10372315;28;20140;-61
2021/03/23 11:56:28;;;;;;;9.00;4.83;;;;;;;;;;10354702;28;20621;-65
2021/03/23 12:01:25;;;;;;;13.13;5.27;;;;;;;;;;10357611;28;20047;-63
2021/03/23 12:06:49;;;;;;;9.27;5.03;;;;;;;;;;10371327;28;20025;-64
2021/03/23 12:12:03;;;;;;;8.75;4.00;;;;;;;;;;10348667;28;20036;-62
2021/03/23 12:17:04;;;;;;;8.80;3.35;;;;;;;;;;10351057;28;20039;-63
2021/03/23 12:22:02;;;;;;;11.20;3.92;;;;;;;;;;10352911;28;20040;-62
2021/03/23 12:26:59;;;;;;;9.15;4.30;;;;;;;;;;10364508;28;20510;-64
2021/03/23 12:31:57;;;;;;;8.03;4.57;;;;;;;;;;10354724;28;20562;-62
2021/03/23 12:36:54;;;;;;;9.70;4.30;;;;;;;;;;10360777;28;20573;-62
2021/03/23 12:41:51;;;;;;;9.60;4.73;;;;;;;;;;10368694;28;20097;-62
2021/03/23 12:46:49;;;;;;;6.83;3.87;;;;;;;;;;10360417;28;20177;-62
2021/03/23 12:51:49;;;;;;;6.37;3.47;;;;;;;;;;10359848;28;20024;-63
2021/03/23 12:56:47;;;;;;;4.45;2.90;;;;;;;;;;10373880;28;20082;-60
2021/03/23 13:01:44;;;;;;;5.60;2.97;;;;;;;;;;10361613;28;20032;-62
2021/03/23 13:06:42;;;;;;;5.67;3.13;;;;;;;;;;10355170;28;20101;-60
2021/03/23 13:11:44;;;;;;;5.77;3.30;;;;;;;;;;10363117;28;21120;-62
2021/03/23 13:16:42;;;;;;;5.85;2.38;;;;;;;;;;10374168;28;20033;-63
2021/03/23 13:21:43;;;;;;;7.30;2.40;;;;;;;;;;10360088;28;20406;-62
2021/03/23 13:26:41;;;;;;;4.40;1.92;;;;;;;;;;10369409;28;20033;-64
2021/03/23 13:31:40;;;;;;;6.10;1.73;;;;;;;;;;10328264;28;20036;-62
2021/03/23 13:36:41;;;;;;;1.83;1.63;;;;;;;;;;10338797;28;20047;-61
2021/03/23 13:41:38;;;;;;;3.15;1.90;;;;;;;;;;10339939;28;20051;-60
2021/03/23 13:46:42;;;;;;;1.87;1.47;;;;;;;;;;10341416;28;20036;-62
2021/03/23 13:51:40;;;;;;;4.13;2.00;;;;;;;;;;10355637;28;20520;-63
2021/03/23 13:56:38;;;;;;;3.35;2.22;;;;;;;;;;10377811;28;20056;-63
2021/03/23 14:01:35;;;;;;;6.73;2.83;;;;;;;;;;10357304;28;20037;-62
2021/03/23 14:06:32;;;;;;;2.57;1.73;;;;;;;;;;10373353;28;20037;-63
2021/03/23 14:11:31;;;;;;;2.73;1.77;;;;;;;;;;10354077;28;20507;-63
2021/03/23 14:16:28;;;;;;;;;;;;;;;;;;10368876;28;20127;-63
2021/03/23 14:21:26;;;;;;;5.68;2.58;;;;;;;;;;10344710;28;20019;-64
2021/03/23 14:26:23;;;;;;;4.63;1.85;;;;;;;;;;10342415;28;20066;-61
2021/03/23 14:31:22;;;;;;;6.63;2.10;;;;;;;;;;10344609;28;20036;-60
2021/03/23 14:36:24;;;;;;;4.78;1.90;;;;;;;;;;10370934;28;20039;-64
2021/03/23 14:41:26;;;;;;;6.60;3.33;;;;;;;;;;10365538;28;20037;-63
2021/03/23 14:46:32;;;;;;;3.83;2.22;;;;;;;;;;10377966;28;20108;-60
2021/03/23 14:51:32;;;;;;;7.55;2.25;;;;;;;;;;10337099;28;20653;-62
2021/03/23 14:56:31;;;;;;;5.32;2.30;;;;;;;;;;10362189;28;20531;-62
2021/03/23 15:01:28;;;;;;;5.20;2.15;;;;;;;;;;10350907;28;20085;-62
2021/03/23 15:06:27;;;;;;;5.17;2.77;;;;;;;;;;10360560;28;20097;-61
2021/03/23 15:11:25;;;;;;;7.63;3.35;;;;;;;;;;10368604;28;20041;-60
2021/03/23 15:16:23;;;;;;;6.68;3.58;;;;;;;;;;10367010;28;20043;-62
2021/03/23 15:21:27;;;;;;;6.27;3.33;;;;;;;;;;10365511;28;20037;-59
2021/03/23 15:26:29;;;;;;;8.18;3.72;;;;;;;;;;10374265;28;20038;-61
2021/03/23 15:31:26;;;;;;;6.05;3.65;;;;;;;;;;10376003;28;20043;-61
2021/03/23 15:36:26;;;;;;;8.47;4.23;;;;;;;;;;10355630;28;20398;-63
2021/03/23 15:41:23;;;;;;;11.55;4.63;;;;;;;;;;10335090;28;20037;-58
2021/03/23 15:46:20;;;;;;;12.63;5.80;;;;;;;;;;10350343;28;20506;-64
2021/03/23 15:51:26;;;;;;;11.63;5.83;;;;;;;;;;10367884;28;20028;-63
2021/03/23 15:56:25;;;;;;;10.50;4.68;;;;;;;;;;10357521;28;20506;-61
2021/03/23 16:01:23;;;;;;;13.05;5.88;;;;;;;;;;10373378;28;20029;-62
2021/03/23 16:06:21;;;;;;;12.10;5.93;;;;;;;;;;10355081;28;20037;-62
2021/03/23 16:11:21;;;;;;;12.23;5.70;;;;;;;;;;10374613;28;20048;-62
2021/03/23 16:16:18;;;;;;;11.88;6.30;;;;;;;;;;10366759;28;20040;-63
2021/03/23 16:21:17;;;;;;;14.13;5.63;;;;;;;;;;10366114;28;20028;-62
2021/03/23 16:26:14;;;;;;;;;;;;;;;;;;10356517;28;20078;-63
2021/03/23 16:31:19;;;;;;;13.77;6.15;;;;;;;;;;10368208;28;19919;-60
2021/03/23 16:36:17;;;;;;;15.90;7.72;;;;;;;;;;10332211;28;20091;-63
2021/03/23 16:41:15;;;;;;;9.93;5.57;;;;;;;;;;10361293;28;20040;-64
2021/03/23 16:46:15;;;;;;;14.13;5.70;;;;;;;;;;10367503;28;20024;-64
2021/03/23 16:51:30;;;;;;;15.65;5.90;;;;;;;;;;10350706;28;20056;-62
2021/03/23 16:56:27;;;;;;;11.40;5.60;;;;;;;;;;10373769;28;20521;-62
2021/03/23 17:01:25;;;;;;;11.10;6.23;;;;;;;;;;10351283;28;20112;-61
2021/03/23 17:06:24;;;;;;;17.42;7.43;;;;;;;;;;10368414;28;20164;-63
2021/03/23 17:11:21;;;;;;;;;;;;;;;;;;10363678;28;20045;-60
2021/03/23 17:16:19;;;;;;;8.10;3.57;;;;;;;;;;10343850;28;20370;-61
2021/03/23 17:21:16;;;;;;;8.13;4.80;;;;;;;;;;10371239;28;20043;-62
2021/03/23 17:26:14;;;;;;;11.77;6.27;;;;;;;;;;10369718;28;20036;-61
2021/03/23 17:31:11;;;;;;;9.93;5.90;;;;;;;;;;10367321;28;20035;-61
2021/03/23 17:36:10;;;;;;;13.82;6.35;;;;;;;;;;10366319;28;20040;-61
2021/03/23 17:41:08;;;;;;;12.45;6.32;;;;;;;;;;10370038;28;20041;-59
2021/03/23 17:46:05;;;;;;;16.57;8.63;;;;;;;;;;10370555;28;20032;-63
2021/03/23 17:51:04;;;;;;;10.77;5.17;;;;;;;;;;10379772;28;20044;-66
2021/03/23 17:56:03;;;;;;;14.73;6.68;;;;;;;;;;10352402;28;20029;-59
2021/03/23 18:01:01;;;;;;;30.58;16.23;;;;;;;;;;10353598;28;20476;-61
2021/03/23 18:05:59;;;;;;;12.32;7.20;;;;;;;;;;10354599;28;20033;-62
2021/03/23 18:10:57;;;;;;;27.90;15.38;;;;;;;;;;10344567;28;20131;-61
2021/03/23 18:15:54;;;;;;;26.10;13.30;;;;;;;;;;10352786;28;20033;-64
2021/03/23 18:20:52;;;;;;;20.00;14.07;;;;;;;;;;10367183;28;20037;-62
2021/03/23 18:25:49;;;;;;;24.80;11.27;;;;;;;;;;10342331;28;20032;-65
2021/03/23 18:30:47;;;;;;;17.50;8.57;;;;;;;;;;10357634;28;20036;-63
2021/03/23 18:35:47;;;;;;;13.63;7.20;;;;;;;;;;10361105;28;20033;-63
2021/03/23 18:40:45;;;;;;;23.98;9.90;;;;;;;;;;10363545;28;20032;-63
2021/03/23 18:45:43;;;;;;;22.80;8.93;;;;;;;;;;10364594;28;20028;-63
2021/03/23 18:50:41;;;;;;;15.80;8.00;;;;;;;;;;10370229;28;20032;-67
2021/03/23 18:55:40;;;;;;;18.13;8.40;;;;;;;;;;10374139;28;20033;-62
2021/03/23 19:00:41;;;;;;;21.10;9.85;;;;;;;;;;10369500;28;20544;-62
2021/03/23 19:05:38;;;;;;;19.10;8.18;;;;;;;;;;10360860;28;20033;-61
2021/03/23 19:10:39;;;;;;;23.17;10.17;;;;;;;;;;10362764;28;20052;-61
2021/03/23 19:15:37;;;;;;;20.73;9.98;;;;;;;;;;10325999;28;20045;-63
2021/03/23 19:20:36;;;;;;;22.53;10.60;;;;;;;;;;10361967;28;20044;-63
2021/03/23 19:25:34;;;;;;;18.35;10.00;;;;;;;;;;10363809;28;20032;-64
2021/03/23 19:30:32;;;;;;;21.05;9.25;;;;;;;;;;10356553;28;20024;-63
2021/03/23 19:35:31;;;;;;;22.00;10.80;;;;;;;;;;10359084;28;20020;-62
2021/03/23 19:40:31;;;;;;;20.02;10.02;;;;;;;;;;10363027;28;20036;-62
2021/03/23 19:45:29;;;;;;;21.45;11.13;;;;;;;;;;10359546;28;20025;-65
2021/03/23 19:50:27;;;;;;;24.90;10.90;;;;;;;;;;10366345;28;20073;-64
2021/03/23 19:55:26;;;;;;;25.95;12.05;;;;;;;;;;10364764;28;20143;-61
2021/03/23 20:00:25;;;;;;;21.88;11.00;;;;;;;;;;10348459;28;20025;-63
2021/03/23 20:05:28;;;;;;;25.75;11.13;;;;;;;;;;10354535;28;20029;-61
2021/03/23 20:10:26;;;;;;;21.88;10.75;;;;;;;;;;10363779;28;20525;-62
2021/03/23 20:15:26;;;;;;;24.63;12.30;;;;;;;;;;10361461;28;20136;-63
2021/03/23 20:20:33;;;;;;;24.92;11.45;;;;;;;;;;10339533;28;20029;-63
2021/03/23 20:25:32;;;;;;;23.52;12.60;;;;;;;;;;10330521;28;20043;-65
2021/03/23 20:30:30;;;;;;;25.05;11.13;;;;;;;;;;10310986;28;20499;-62
2021/03/23 20:35:33;;;;;;;29.00;12.30;;;;;;;;;;10342373;28;20390;-64
2021/03/23 20:40:30;;;;;;;21.67;10.00;;;;;;;;;;10350793;28;20041;-60
2021/03/23 20:45:28;;;;;;;21.80;10.67;;;;;;;;;;10351214;28;20103;-63
2021/03/23 20:50:27;;;;;;;24.88;10.10;;;;;;;;;;10344374;28;20114;-61
2021/03/23 20:55:29;;;;;;;22.52;11.45;;;;;;;;;;10354227;28;20029;-62
2021/03/23 21:00:28;;;;;;;21.55;10.60;;;;;;;;;;10358793;28;20036;-62
2021/03/23 21:05:30;;;;;;;24.38;10.95;;;;;;;;;;10360878;28;20032;-61
2021/03/23 21:10:30;;;;;;;28.92;12.45;;;;;;;;;;10359870;28;20044;-63
2021/03/23 21:15:28;;;;;;;34.17;14.57;;;;;;;;;;10364466;28;20120;-62
2021/03/23 21:20:31;;;;;;;61.13;33.33;;;;;;;;;;10359782;28;20131;-65
2021/03/23 21:25:31;;;;;;;110.38;54.25;;;;;;;;;;10349952;28;20032;-63
2021/03/23 21:30:29;;;;;;;60.20;37.70;;;;;;;;;;10364330;28;20036;-62
2021/03/23 21:35:28;;;;;;;39.88;23.98;;;;;;;;;;10361440;28;20033;-64
2021/03/23 21:40:26;;;;;;;44.33;25.80;;;;;;;;;;10344285;28;20067;-66
2021/03/23 21:45:26;;;;;;;44.90;26.52;;;;;;;;;;10341063;28;20056;-63
2021/03/23 21:50:25;;;;;;;40.40;22.95;;;;;;;;;;10366891;28;20037;-64
2021/03/23 21:55:23;;;;;;;36.47;20.73;;;;;;;;;;10351696;28;20555;-62
2021/03/23 22:00:21;;;;;;;;;;;;;;;;;;10365572;28;20028;-62
2021/03/23 22:05:19;;;;;;;26.92;16.60;;;;;;;;;;10359503;22;20365;-66
2021/03/23 22:10:16;;;;;;;29.00;17.90;;;;;;;;;;10309261;28;20043;-66
2021/03/23 22:15:14;;;;;;;26.40;16.33;;;;;;;;;;10334386;28;20036;-66
2021/03/23 22:20:12;;;;;;;50.30;23.40;;;;;;;;;;10314233;28;20045;-67
2021/03/23 22:25:11;;;;;;;56.75;25.58;;;;;;;;;;10314209;28;20045;-66
2021/03/23 22:30:08;;;;;;;;;;;;;;;;;;10328876;28;20503;-65
2021/03/23 22:35:06;;;;;;;56.50;25.73;;;;;;;;;;10331350;28;19912;-64
2021/03/23 22:40:04;;;;;;;57.30;25.83;;;;;;;;;;10326252;28;20341;-65
2021/03/23 22:45:02;;;;;;;50.35;21.75;;;;;;;;;;10324687;28;20141;-65
2021/03/23 22:49:59;;;;;;;59.55;26.10;;;;;;;;;;10328044;28;20419;-64
2021/03/23 22:54:56;;;;;;;49.50;22.33;;;;;;;;;;10325356;28;20060;-65
2021/03/23 22:59:54;;;;;;;49.90;23.70;;;;;;;;;;10318149;28;20503;-66
2021/03/23 23:04:51;;;;;;;29.70;13.90;;;;;;;;;;10317385;28;20060;-65
2021/03/23 23:09:48;;;;;;;36.73;15.70;;;;;;;;;;10312141;28;20045;-66
2021/03/23 23:14:46;;;;;;;38.30;17.33;;;;;;;;;;10320587;28;20037;-66
2021/03/23 23:19:43;;;;;;;31.70;14.03;;;;;;;;;;10330654;28;20888;-65
2021/03/23 23:24:51;;;;;;;27.00;11.47;;;;;;;;;;10308325;28;20041;-66
2021/03/23 23:29:49;;;;;;;38.67;17.40;;;;;;;;;;10325523;28;20128;-65
2021/03/23 23:34:46;;;;;;;40.13;17.83;;;;;;;;;;10322463;28;20473;-65
2021/03/23 23:39:44;;;;;;;21.37;9.47;;;;;;;;;;10315134;28;20122;-65
2021/03/23 23:44:41;;;;;;;41.23;17.93;;;;;;;;;;10326808;28;20046;-63
2021/03/23 23:49:39;;;;;;;49.23;21.33;;;;;;;;;;10307664;28;20605;-65
2021/03/23 23:54:36;;;;;;;39.10;17.73;;;;;;;;;;10324442;28;20041;-65
2021/03/23 23:59:33;;;;;;;40.47;17.47;;;;;;;;;;10313134;28;20046;-65
